FranceFixed distance
Luchon Aneto Trail - Lat Challenge
5–6 Jul2025·2 stages
Distance
87km
Finishers
145113 men32 women
Winning time
9:36:56h
Median pace
5.98km/h
Pace distribution
145 finishers · 4.50–9.05 km/h · mean 6.12
Every finisher ran the same 87 km course, so these paces are directly comparable.
Histogram of finisher pace. 145 finishers ranged from 4.50 to 9.05 kilometres per hour, with a mean of 6.12 and a median of 5.98. The busiest band is 5.0 to 5.5 kilometres per hour, with 34 finishers.
Results
Ranks 101–145 of 145
| Rank | Runner | Time | Pace | Cat. | Placing |
|---|---|---|---|---|---|
| 101 | *St Germain De Lusignan | 15:55:09h | 5.46 | — | 83rd M |
| 102 | Team Rrunning Castres | 16:01:35h | 5.43 | M23 | 84th M · 22nd M23 |
| 103 | Run'Arde | 16:03:45h | 5.42 | W35 | 19th F · 7th W35 |
| 103 | US Thouars | 16:03:45h | 5.42 | M50 | 85th M · 11th M50 |
| 105 | AB Trail | 16:05:30h | 5.41 | W40 | 20th F · 3rd W40 |
| 106 | *Corronsac | 16:06:10h | 5.40 | M45 | 86th M · 13th M45 |
| 107 | *Les Gonds | 16:08:06h | 5.39 | M40 | 87th M · 21st M40 |
| 108 | Trail IN France | 16:08:12h | 5.39 | M60 | 88th M · 1st M60 |
| 109 | *Cugand | 16:13:18h | 5.36 | M55 | 89th M · 1st M55 |
| 110 | Essar'Trace | 16:14:07h | 5.36 | M40 | 90th M · 22nd M40 |
| 111 | Nature Sport Attitude | 16:15:03h | 5.35 | M45 | 91st M · 14th M45 |
| 112 | *Bonrepos | 16:16:38h | 5.34 | W23 | 21st F · 7th W23 |
| 113 | *Bonrepos | 16:16:39h | 5.34 | M23 | 92nd M · 23rd M23 |
| 114 | *Verlhac-Tescou | 16:16:49h | 5.34 | M45 | 93rd M · 15th M45 |
| 115 | *Auradé | 16:24:29h | 5.30 | M40 | 94th M · 23rd M40 |
| 116 | Run IN Mouilleron | 16:25:42h | 5.30 | M45 | 95th M · 16th M45 |
| 117 | Run IN Mouilleron | 16:25:43h | 5.30 | M45 | 96th M · 17th M45 |
| 118 | *Rennes | 16:26:28h | 5.29 | W23 | 22nd F · 8th W23 |
| 119 | Essar'Trace | 16:27:30h | 5.29 | M50 | 97th M · 12th M50 |
| 120 | Asmt | 16:31:13h | 5.27 | M50 | 98th M · 13th M50 |
| 121 | Lucon Jogging Nature | 16:31:18h | 5.27 | M40 | 99th M · 24th M40 |
| 122 | *Labescau | 16:41:57h | 5.21 | M50 | 100th M · 14th M50 |
| 123 | *Toulouse | 16:52:05h | 5.16 | W50 | 23rd F · 1st W50 |
| 124 | Essar'Trace | 16:53:30h | 5.15 | M35 | 101st M · 11th M35 |
| 125 | *Tournefeuille | 16:55:19h | 5.14 | W50 | 24th F · 2nd W50 |
| 126 | Essar'Trace | 16:55:31h | 5.14 | W45 | 25th F · 3rd W45 |
| 127 | Courir Fonsegrives | 16:56:11h | 5.14 | M65 | 102nd M · 1st M65 |
| 128 | *Saint Nauphary | 16:56:35h | 5.13 | M35 | 103rd M · 12th M35 |
| 129 | Club LE Mourtis | 17:01:18h | 5.11 | M55 | 104th M · 2nd M55 |
| 130 | Safran Fougeres | 17:08:19h | 5.08 | M50 | 105th M · 15th M50 |
| 131 | AMA Cugand | 17:08:25h | 5.08 | W55 | 26th F · 1st W55 |
| 132 | Raid’YON | 17:15:43h | 5.04 | M40 | 106th M · 25th M40 |
| 133 | Serres DEL Mestral | 17:25:29h | 4.99 | — | 27th F |
| 134 | Essar’Trace | 17:31:40h | 4.96 | M40 | 107th M · 26th M40 |
| 135 | Courir Fonsegrives | 17:33:36h | 4.95 | W45 | 28th F · 4th W45 |
| 136 | Team Rruning Castres | 17:54:30h | 4.86 | W23 | 29th F · 9th W23 |
| 137 | VLP Athlétisme | 17:59:45h | 4.83 | M40 | 108th M · 27th M40 |
| 138 | Essar'Trace | 18:01:07h | 4.83 | M45 | 109th M · 18th M45 |
| 139 | SA Mérignac | 18:05:53h | 4.81 | W45 | 30th F · 5th W45 |
| 140 | *Naintré | 18:09:24h | 4.79 | M50 | 110th M · 16th M50 |
| 141 | Team Rrunning Castres | 18:13:04h | 4.78 | W40 | 31st F · 4th W40 |
| 142 | Essar'Trace | 18:13:27h | 4.77 | M50 | 111th M · 17th M50 |
| 143 | Nature Sport Attitude | 18:17:47h | 4.75 | M55 | 112th M · 3rd M55 |
| 144 | Nature Sport Attitude | 18:17:50h | 4.75 | W45 | 32nd F · 6th W45 |
| 145 | Essart'Trace | 19:21:13h | 4.50 | M65 | 113th M · 2nd M65 |
- 101*St Germain De Lusignan83rd MTime15:55:09hPace5.46
- 102Team Rrunning Castres84th M · 22nd M23Time16:01:35hPace5.43Cat.M23
- 103Run'Arde19th F · 7th W35Time16:03:45hPace5.42Cat.W35
- 103US Thouars85th M · 11th M50Time16:03:45hPace5.42Cat.M50
- 105AB Trail20th F · 3rd W40Time16:05:30hPace5.41Cat.W40
- 106*Corronsac86th M · 13th M45Time16:06:10hPace5.40Cat.M45
- 107*Les Gonds87th M · 21st M40Time16:08:06hPace5.39Cat.M40
- 108Trail IN France88th M · 1st M60Time16:08:12hPace5.39Cat.M60
- 109*Cugand89th M · 1st M55Time16:13:18hPace5.36Cat.M55
- 110Essar'Trace90th M · 22nd M40Time16:14:07hPace5.36Cat.M40
- 111Nature Sport Attitude91st M · 14th M45Time16:15:03hPace5.35Cat.M45
- 112*Bonrepos21st F · 7th W23Time16:16:38hPace5.34Cat.W23
- 113*Bonrepos92nd M · 23rd M23Time16:16:39hPace5.34Cat.M23
- 114*Verlhac-Tescou93rd M · 15th M45Time16:16:49hPace5.34Cat.M45
- 115*Auradé94th M · 23rd M40Time16:24:29hPace5.30Cat.M40
- 116Run IN Mouilleron95th M · 16th M45Time16:25:42hPace5.30Cat.M45
- 117Run IN Mouilleron96th M · 17th M45Time16:25:43hPace5.30Cat.M45
- 118*Rennes22nd F · 8th W23Time16:26:28hPace5.29Cat.W23
- 119Essar'Trace97th M · 12th M50Time16:27:30hPace5.29Cat.M50
- 120Asmt98th M · 13th M50Time16:31:13hPace5.27Cat.M50
- 121Lucon Jogging Nature99th M · 24th M40Time16:31:18hPace5.27Cat.M40
- 122*Labescau100th M · 14th M50Time16:41:57hPace5.21Cat.M50
- 123*Toulouse23rd F · 1st W50Time16:52:05hPace5.16Cat.W50
- 124Essar'Trace101st M · 11th M35Time16:53:30hPace5.15Cat.M35
- 125*Tournefeuille24th F · 2nd W50Time16:55:19hPace5.14Cat.W50
- 126Essar'Trace25th F · 3rd W45Time16:55:31hPace5.14Cat.W45
- 127Courir Fonsegrives102nd M · 1st M65Time16:56:11hPace5.14Cat.M65
- 128*Saint Nauphary103rd M · 12th M35Time16:56:35hPace5.13Cat.M35
- 129Club LE Mourtis104th M · 2nd M55Time17:01:18hPace5.11Cat.M55
- 130Safran Fougeres105th M · 15th M50Time17:08:19hPace5.08Cat.M50
- 131AMA Cugand26th F · 1st W55Time17:08:25hPace5.08Cat.W55
- 132Raid’YON106th M · 25th M40Time17:15:43hPace5.04Cat.M40
- 133Serres DEL Mestral27th FTime17:25:29hPace4.99
- 134Essar’Trace107th M · 26th M40Time17:31:40hPace4.96Cat.M40
- 135Courir Fonsegrives28th F · 4th W45Time17:33:36hPace4.95Cat.W45
- 136Team Rruning Castres29th F · 9th W23Time17:54:30hPace4.86Cat.W23
- 137VLP Athlétisme108th M · 27th M40Time17:59:45hPace4.83Cat.M40
- 138Essar'Trace109th M · 18th M45Time18:01:07hPace4.83Cat.M45
- 139SA Mérignac30th F · 5th W45Time18:05:53hPace4.81Cat.W45
- 140*Naintré110th M · 16th M50Time18:09:24hPace4.79Cat.M50
- 141Team Rrunning Castres31st F · 4th W40Time18:13:04hPace4.78Cat.W40
- 142Essar'Trace111th M · 17th M50Time18:13:27hPace4.77Cat.M50
- 143Nature Sport Attitude112th M · 3rd M55Time18:17:47hPace4.75Cat.M55
- 144Nature Sport Attitude32nd F · 6th W45Time18:17:50hPace4.75Cat.W45
- 145Essart'Trace113th M · 2nd M65Time19:21:13hPace4.50Cat.M65
Showing ranks 101–145 of 145